sensor_id;sensor_type;location;lat;lon;timestamp;P1;durP1;ratioP1;P2;durP2;ratioP2
10303;SDS011;5197;48.152;8.590;2024-01-11T00:00:58;43.93;;;21.37;;
10303;SDS011;5197;48.152;8.590;2024-01-11T00:03:26;43.33;;;21.53;;
10303;SDS011;5197;48.152;8.590;2024-01-11T00:05:52;48.80;;;24.07;;
10303;SDS011;5197;48.152;8.590;2024-01-11T00:08:19;42.77;;;20.80;;
10303;SDS011;5197;48.152;8.590;2024-01-11T00:10:46;41.90;;;22.13;;
10303;SDS011;5197;48.152;8.590;2024-01-11T00:13:13;46.80;;;22.90;;
10303;SDS011;5197;48.152;8.590;2024-01-11T00:15:40;40.17;;;21.93;;
10303;SDS011;5197;48.152;8.590;2024-01-11T00:18:07;50.23;;;22.47;;
10303;SDS011;5197;48.152;8.590;2024-01-11T00:20:34;38.90;;;20.10;;
10303;SDS011;5197;48.152;8.590;2024-01-11T00:23:01;51.23;;;25.80;;
10303;SDS011;5197;48.152;8.590;2024-01-11T00:25:28;75.03;;;33.33;;
10303;SDS011;5197;48.152;8.590;2024-01-11T00:27:54;130.83;;;49.50;;
10303;SDS011;5197;48.152;8.590;2024-01-11T00:30:21;131.33;;;52.57;;
10303;SDS011;5197;48.152;8.590;2024-01-11T00:32:49;135.63;;;52.97;;
10303;SDS011;5197;48.152;8.590;2024-01-11T00:35:16;46.50;;;22.47;;
10303;SDS011;5197;48.152;8.590;2024-01-11T00:37:43;39.20;;;21.17;;
10303;SDS011;5197;48.152;8.590;2024-01-11T00:40:11;38.20;;;20.73;;
10303;SDS011;5197;48.152;8.590;2024-01-11T00:42:38;41.30;;;22.83;;
10303;SDS011;5197;48.152;8.590;2024-01-11T00:45:05;42.77;;;22.30;;
10303;SDS011;5197;48.152;8.590;2024-01-11T00:47:32;40.10;;;21.43;;
10303;SDS011;5197;48.152;8.590;2024-01-11T00:49:59;39.20;;;22.07;;
10303;SDS011;5197;48.152;8.590;2024-01-11T00:52:26;41.73;;;20.97;;
10303;SDS011;5197;48.152;8.590;2024-01-11T00:54:53;41.30;;;21.77;;
10303;SDS011;5197;48.152;8.590;2024-01-11T00:57:19;43.43;;;23.30;;
10303;SDS011;5197;48.152;8.590;2024-01-11T00:59:48;47.20;;;24.47;;
10303;SDS011;5197;48.152;8.590;2024-01-11T01:02:15;44.43;;;24.60;;
10303;SDS011;5197;48.152;8.590;2024-01-11T01:04:41;42.40;;;21.30;;
10303;SDS011;5197;48.152;8.590;2024-01-11T01:07:08;43.33;;;22.47;;
10303;SDS011;5197;48.152;8.590;2024-01-11T01:09:36;41.80;;;20.83;;
10303;SDS011;5197;48.152;8.590;2024-01-11T01:12:02;43.47;;;23.37;;
10303;SDS011;5197;48.152;8.590;2024-01-11T01:14:30;40.57;;;22.60;;
10303;SDS011;5197;48.152;8.590;2024-01-11T01:16:57;44.57;;;22.33;;
10303;SDS011;5197;48.152;8.590;2024-01-11T01:19:24;36.97;;;20.87;;
10303;SDS011;5197;48.152;8.590;2024-01-11T01:21:51;38.83;;;20.93;;
10303;SDS011;5197;48.152;8.590;2024-01-11T01:24:18;36.53;;;19.37;;
10303;SDS011;5197;48.152;8.590;2024-01-11T01:26:44;39.67;;;20.20;;
10303;SDS011;5197;48.152;8.590;2024-01-11T01:29:11;41.10;;;21.37;;
10303;SDS011;5197;48.152;8.590;2024-01-11T01:31:38;41.60;;;20.93;;
10303;SDS011;5197;48.152;8.590;2024-01-11T01:34:06;42.17;;;21.67;;
10303;SDS011;5197;48.152;8.590;2024-01-11T01:36:33;47.50;;;20.60;;
10303;SDS011;5197;48.152;8.590;2024-01-11T01:39:00;41.30;;;20.20;;
10303;SDS011;5197;48.152;8.590;2024-01-11T01:41:27;39.60;;;20.43;;
10303;SDS011;5197;48.152;8.590;2024-01-11T01:43:54;42.27;;;21.47;;
10303;SDS011;5197;48.152;8.590;2024-01-11T01:46:24;42.67;;;20.23;;
10303;SDS011;5197;48.152;8.590;2024-01-11T01:48:52;40.13;;;21.03;;
10303;SDS011;5197;48.152;8.590;2024-01-11T01:51:21;39.30;;;20.07;;
10303;SDS011;5197;48.152;8.590;2024-01-11T01:53:50;44.77;;;21.80;;
10303;SDS011;5197;48.152;8.590;2024-01-11T01:56:20;42.90;;;21.33;;
10303;SDS011;5197;48.152;8.590;2024-01-11T01:58:48;39.23;;;20.70;;
10303;SDS011;5197;48.152;8.590;2024-01-11T02:01:18;41.33;;;20.97;;
10303;SDS011;5197;48.152;8.590;2024-01-11T02:03:47;38.87;;;20.07;;
10303;SDS011;5197;48.152;8.590;2024-01-11T02:06:17;40.50;;;20.27;;
10303;SDS011;5197;48.152;8.590;2024-01-11T02:08:47;36.37;;;20.63;;
10303;SDS011;5197;48.152;8.590;2024-01-11T02:11:18;41.57;;;20.37;;
10303;SDS011;5197;48.152;8.590;2024-01-11T02:13:47;36.20;;;19.23;;
10303;SDS011;5197;48.152;8.590;2024-01-11T02:16:16;38.77;;;19.13;;
10303;SDS011;5197;48.152;8.590;2024-01-11T02:18:43;39.23;;;19.60;;
10303;SDS011;5197;48.152;8.590;2024-01-11T02:21:11;39.93;;;19.10;;
10303;SDS011;5197;48.152;8.590;2024-01-11T02:23:44;37.80;;;19.23;;
10303;SDS011;5197;48.152;8.590;2024-01-11T02:26:28;49.50;;;20.33;;
10303;SDS011;5197;48.152;8.590;2024-01-11T02:28:55;34.47;;;19.97;;
10303;SDS011;5197;48.152;8.590;2024-01-11T02:31:22;37.27;;;20.60;;
10303;SDS011;5197;48.152;8.590;2024-01-11T02:33:53;41.10;;;21.50;;
10303;SDS011;5197;48.152;8.590;2024-01-11T02:36:22;39.97;;;21.07;;
10303;SDS011;5197;48.152;8.590;2024-01-11T02:38:49;39.97;;;21.47;;
10303;SDS011;5197;48.152;8.590;2024-01-11T02:41:18;44.70;;;20.47;;
10303;SDS011;5197;48.152;8.590;2024-01-11T02:43:46;43.10;;;21.07;;
10303;SDS011;5197;48.152;8.590;2024-01-11T02:46:15;42.83;;;20.20;;
10303;SDS011;5197;48.152;8.590;2024-01-11T02:48:43;38.57;;;19.53;;
10303;SDS011;5197;48.152;8.590;2024-01-11T02:51:11;45.53;;;21.67;;
10303;SDS011;5197;48.152;8.590;2024-01-11T02:53:38;41.73;;;22.03;;
10303;SDS011;5197;48.152;8.590;2024-01-11T02:56:05;39.13;;;19.93;;
10303;SDS011;5197;48.152;8.590;2024-01-11T02:58:32;36.77;;;20.43;;
10303;SDS011;5197;48.152;8.590;2024-01-11T03:00:59;37.83;;;21.07;;
10303;SDS011;5197;48.152;8.590;2024-01-11T03:03:26;37.70;;;19.87;;
10303;SDS011;5197;48.152;8.590;2024-01-11T03:05:53;40.17;;;20.33;;
10303;SDS011;5197;48.152;8.590;2024-01-11T03:08:20;39.17;;;20.07;;
10303;SDS011;5197;48.152;8.590;2024-01-11T03:10:47;36.17;;;19.30;;
10303;SDS011;5197;48.152;8.590;2024-01-11T03:13:14;36.03;;;19.30;;
10303;SDS011;5197;48.152;8.590;2024-01-11T03:15:41;40.03;;;20.03;;
10303;SDS011;5197;48.152;8.590;2024-01-11T03:18:07;34.13;;;18.57;;
10303;SDS011;5197;48.152;8.590;2024-01-11T03:20:35;36.80;;;18.87;;
10303;SDS011;5197;48.152;8.590;2024-01-11T03:23:02;37.60;;;19.23;;
10303;SDS011;5197;48.152;8.590;2024-01-11T03:25:29;37.60;;;17.30;;
10303;SDS011;5197;48.152;8.590;2024-01-11T03:27:57;37.67;;;18.43;;
10303;SDS011;5197;48.152;8.590;2024-01-11T03:30:25;35.90;;;18.50;;
10303;SDS011;5197;48.152;8.590;2024-01-11T03:32:52;43.97;;;20.03;;
10303;SDS011;5197;48.152;8.590;2024-01-11T03:35:19;40.23;;;19.23;;
10303;SDS011;5197;48.152;8.590;2024-01-11T03:37:47;44.27;;;20.40;;
10303;SDS011;5197;48.152;8.590;2024-01-11T03:40:14;42.77;;;20.43;;
10303;SDS011;5197;48.152;8.590;2024-01-11T03:42:41;38.03;;;19.77;;
10303;SDS011;5197;48.152;8.590;2024-01-11T03:45:09;40.77;;;20.50;;
10303;SDS011;5197;48.152;8.590;2024-01-11T03:47:36;38.73;;;18.97;;
10303;SDS011;5197;48.152;8.590;2024-01-11T03:50:03;44.00;;;19.83;;
10303;SDS011;5197;48.152;8.590;2024-01-11T03:52:31;36.30;;;18.30;;
10303;SDS011;5197;48.152;8.590;2024-01-11T03:54:57;39.50;;;20.20;;
10303;SDS011;5197;48.152;8.590;2024-01-11T03:57:24;45.07;;;21.70;;
10303;SDS011;5197;48.152;8.590;2024-01-11T03:59:51;40.37;;;21.20;;
10303;SDS011;5197;48.152;8.590;2024-01-11T04:02:18;36.93;;;17.87;;
10303;SDS011;5197;48.152;8.590;2024-01-11T04:04:45;42.27;;;21.53;;
10303;SDS011;5197;48.152;8.590;2024-01-11T04:07:12;32.50;;;18.87;;
10303;SDS011;5197;48.152;8.590;2024-01-11T04:09:39;43.47;;;20.47;;
10303;SDS011;5197;48.152;8.590;2024-01-11T04:12:06;37.20;;;19.67;;
10303;SDS011;5197;48.152;8.590;2024-01-11T04:14:33;36.10;;;17.97;;
10303;SDS011;5197;48.152;8.590;2024-01-11T04:17:05;34.23;;;18.00;;
10303;SDS011;5197;48.152;8.590;2024-01-11T04:19:32;38.97;;;17.53;;
10303;SDS011;5197;48.152;8.590;2024-01-11T04:21:59;31.67;;;17.77;;
10303;SDS011;5197;48.152;8.590;2024-01-11T04:24:26;33.30;;;16.83;;
10303;SDS011;5197;48.152;8.590;2024-01-11T04:26:53;33.77;;;17.83;;
10303;SDS011;5197;48.152;8.590;2024-01-11T04:29:20;32.67;;;16.57;;
10303;SDS011;5197;48.152;8.590;2024-01-11T04:31:46;34.20;;;18.33;;
10303;SDS011;5197;48.152;8.590;2024-01-11T04:34:13;37.93;;;18.30;;
10303;SDS011;5197;48.152;8.590;2024-01-11T04:36:40;35.50;;;17.80;;
10303;SDS011;5197;48.152;8.590;2024-01-11T04:39:08;35.73;;;17.10;;
10303;SDS011;5197;48.152;8.590;2024-01-11T04:41:35;34.73;;;17.90;;
10303;SDS011;5197;48.152;8.590;2024-01-11T04:44:05;37.63;;;18.47;;
10303;SDS011;5197;48.152;8.590;2024-01-11T04:46:32;38.13;;;18.70;;
10303;SDS011;5197;48.152;8.590;2024-01-11T04:48:59;36.57;;;18.40;;
10303;SDS011;5197;48.152;8.590;2024-01-11T04:51:26;39.33;;;19.50;;
10303;SDS011;5197;48.152;8.590;2024-01-11T04:53:53;37.90;;;18.27;;
10303;SDS011;5197;48.152;8.590;2024-01-11T04:56:19;33.57;;;17.63;;
10303;SDS011;5197;48.152;8.590;2024-01-11T04:58:47;35.93;;;17.83;;
10303;SDS011;5197;48.152;8.590;2024-01-11T05:01:14;41.33;;;18.93;;
10303;SDS011;5197;48.152;8.590;2024-01-11T05:03:43;35.40;;;16.80;;
10303;SDS011;5197;48.152;8.590;2024-01-11T05:06:17;41.47;;;17.17;;
10303;SDS011;5197;48.152;8.590;2024-01-11T05:08:46;34.73;;;17.00;;
10303;SDS011;5197;48.152;8.590;2024-01-11T05:11:17;34.33;;;17.43;;
10303;SDS011;5197;48.152;8.590;2024-01-11T05:13:45;32.20;;;17.00;;
10303;SDS011;5197;48.152;8.590;2024-01-11T05:16:23;35.70;;;16.57;;
10303;SDS011;5197;48.152;8.590;2024-01-11T05:18:52;39.33;;;17.30;;
10303;SDS011;5197;48.152;8.590;2024-01-11T05:21:20;35.10;;;17.77;;
10303;SDS011;5197;48.152;8.590;2024-01-11T05:23:47;43.43;;;21.57;;
10303;SDS011;5197;48.152;8.590;2024-01-11T05:26:15;36.40;;;17.83;;
10303;SDS011;5197;48.152;8.590;2024-01-11T05:28:43;40.67;;;18.83;;
10303;SDS011;5197;48.152;8.590;2024-01-11T05:31:10;35.13;;;16.70;;
10303;SDS011;5197;48.152;8.590;2024-01-11T05:33:39;35.73;;;17.77;;
10303;SDS011;5197;48.152;8.590;2024-01-11T05:36:06;42.50;;;19.43;;
10303;SDS011;5197;48.152;8.590;2024-01-11T05:38:34;38.70;;;18.00;;
10303;SDS011;5197;48.152;8.590;2024-01-11T05:41:01;36.30;;;18.37;;
10303;SDS011;5197;48.152;8.590;2024-01-11T05:43:28;33.23;;;17.93;;
10303;SDS011;5197;48.152;8.590;2024-01-11T05:45:55;36.40;;;18.07;;
10303;SDS011;5197;48.152;8.590;2024-01-11T05:48:22;31.77;;;16.40;;
10303;SDS011;5197;48.152;8.590;2024-01-11T05:50:49;34.57;;;17.73;;
10303;SDS011;5197;48.152;8.590;2024-01-11T05:53:16;38.03;;;17.33;;
10303;SDS011;5197;48.152;8.590;2024-01-11T05:55:46;37.00;;;18.63;;
10303;SDS011;5197;48.152;8.590;2024-01-11T05:58:15;36.53;;;17.57;;
10303;SDS011;5197;48.152;8.590;2024-01-11T06:00:42;33.30;;;18.17;;
10303;SDS011;5197;48.152;8.590;2024-01-11T06:03:11;30.47;;;17.00;;
10303;SDS011;5197;48.152;8.590;2024-01-11T06:05:39;38.47;;;19.20;;
10303;SDS011;5197;48.152;8.590;2024-01-11T06:08:06;33.27;;;17.43;;
10303;SDS011;5197;48.152;8.590;2024-01-11T06:10:33;37.67;;;19.37;;
10303;SDS011;5197;48.152;8.590;2024-01-11T06:13:00;35.80;;;18.50;;
10303;SDS011;5197;48.152;8.590;2024-01-11T06:15:27;38.40;;;17.63;;
10303;SDS011;5197;48.152;8.590;2024-01-11T06:17:54;37.77;;;17.20;;
10303;SDS011;5197;48.152;8.590;2024-01-11T06:20:21;31.23;;;15.90;;
10303;SDS011;5197;48.152;8.590;2024-01-11T06:22:48;27.77;;;15.93;;
10303;SDS011;5197;48.152;8.590;2024-01-11T06:25:15;39.60;;;17.13;;
10303;SDS011;5197;48.152;8.590;2024-01-11T06:27:43;34.73;;;17.37;;
10303;SDS011;5197;48.152;8.590;2024-01-11T06:30:10;34.10;;;17.13;;
10303;SDS011;5197;48.152;8.590;2024-01-11T06:32:38;43.73;;;18.60;;
10303;SDS011;5197;48.152;8.590;2024-01-11T06:35:05;40.67;;;18.70;;
10303;SDS011;5197;48.152;8.590;2024-01-11T06:37:33;35.63;;;19.13;;
10303;SDS011;5197;48.152;8.590;2024-01-11T06:40:00;42.47;;;20.60;;
10303;SDS011;5197;48.152;8.590;2024-01-11T06:42:27;42.77;;;20.80;;
10303;SDS011;5197;48.152;8.590;2024-01-11T06:44:54;38.37;;;18.63;;
10303;SDS011;5197;48.152;8.590;2024-01-11T06:47:21;37.67;;;19.83;;
10303;SDS011;5197;48.152;8.590;2024-01-11T06:49:48;41.73;;;17.83;;
10303;SDS011;5197;48.152;8.590;2024-01-11T06:52:15;36.47;;;19.50;;
10303;SDS011;5197;48.152;8.590;2024-01-11T06:54:42;41.93;;;19.37;;
10303;SDS011;5197;48.152;8.590;2024-01-11T06:57:09;36.57;;;18.87;;
10303;SDS011;5197;48.152;8.590;2024-01-11T06:59:36;40.70;;;20.60;;
10303;SDS011;5197;48.152;8.590;2024-01-11T07:02:03;41.00;;;20.37;;
10303;SDS011;5197;48.152;8.590;2024-01-11T07:04:30;32.67;;;18.60;;
10303;SDS011;5197;48.152;8.590;2024-01-11T07:07:00;43.40;;;20.87;;
10303;SDS011;5197;48.152;8.590;2024-01-11T07:09:27;43.67;;;21.13;;
10303;SDS011;5197;48.152;8.590;2024-01-11T07:11:54;42.30;;;19.90;;
10303;SDS011;5197;48.152;8.590;2024-01-11T07:14:21;33.47;;;16.57;;
10303;SDS011;5197;48.152;8.590;2024-01-11T07:16:48;37.17;;;17.47;;
10303;SDS011;5197;48.152;8.590;2024-01-11T07:19:16;35.37;;;13.93;;
10303;SDS011;5197;48.152;8.590;2024-01-11T07:21:43;37.57;;;17.20;;
10303;SDS011;5197;48.152;8.590;2024-01-11T07:24:10;32.23;;;15.80;;
10303;SDS011;5197;48.152;8.590;2024-01-11T07:26:37;40.80;;;15.33;;
10303;SDS011;5197;48.152;8.590;2024-01-11T07:29:04;21.57;;;9.07;;
10303;SDS011;5197;48.152;8.590;2024-01-11T07:31:31;23.77;;;9.40;;
10303;SDS011;5197;48.152;8.590;2024-01-11T07:33:57;32.53;;;14.23;;
10303;SDS011;5197;48.152;8.590;2024-01-11T07:36:28;15.50;;;8.23;;
10303;SDS011;5197;48.152;8.590;2024-01-11T07:38:55;38.67;;;19.07;;
10303;SDS011;5197;48.152;8.590;2024-01-11T07:41:22;28.30;;;15.27;;
10303;SDS011;5197;48.152;8.590;2024-01-11T07:43:50;40.13;;;21.00;;
10303;SDS011;5197;48.152;8.590;2024-01-11T07:46:21;37.77;;;18.83;;
10303;SDS011;5197;48.152;8.590;2024-01-11T07:49:05;28.33;;;13.43;;
10303;SDS011;5197;48.152;8.590;2024-01-11T07:51:33;27.43;;;13.43;;
10303;SDS011;5197;48.152;8.590;2024-01-11T07:54:06;21.50;;;11.47;;
10303;SDS011;5197;48.152;8.590;2024-01-11T07:56:33;27.47;;;13.97;;
10303;SDS011;5197;48.152;8.590;2024-01-11T07:59:02;30.27;;;12.20;;
10303;SDS011;5197;48.152;8.590;2024-01-11T08:01:29;8.47;;;5.50;;
10303;SDS011;5197;48.152;8.590;2024-01-11T08:03:56;36.60;;;14.13;;
10303;SDS011;5197;48.152;8.590;2024-01-11T08:06:23;37.30;;;16.70;;
10303;SDS011;5197;48.152;8.590;2024-01-11T08:08:50;54.33;;;23.47;;
10303;SDS011;5197;48.152;8.590;2024-01-11T08:11:18;21.37;;;10.80;;
10303;SDS011;5197;48.152;8.590;2024-01-11T08:13:45;29.83;;;14.30;;
10303;SDS011;5197;48.152;8.590;2024-01-11T08:16:16;28.53;;;11.37;;
10303;SDS011;5197;48.152;8.590;2024-01-11T08:18:44;50.20;;;22.70;;
10303;SDS011;5197;48.152;8.590;2024-01-11T08:21:12;49.43;;;22.47;;
10303;SDS011;5197;48.152;8.590;2024-01-11T08:23:39;44.87;;;22.07;;
10303;SDS011;5197;48.152;8.590;2024-01-11T08:26:12;47.07;;;21.63;;
10303;SDS011;5197;48.152;8.590;2024-01-11T08:28:45;38.33;;;18.77;;
10303;SDS011;5197;48.152;8.590;2024-01-11T08:31:18;41.93;;;21.43;;
10303;SDS011;5197;48.152;8.590;2024-01-11T08:33:45;45.97;;;22.17;;
10303;SDS011;5197;48.152;8.590;2024-01-11T08:36:12;40.80;;;21.33;;
10303;SDS011;5197;48.152;8.590;2024-01-11T08:38:39;42.03;;;19.73;;
10303;SDS011;5197;48.152;8.590;2024-01-11T08:41:07;53.83;;;25.90;;
10303;SDS011;5197;48.152;8.590;2024-01-11T08:43:34;51.10;;;22.33;;
10303;SDS011;5197;48.152;8.590;2024-01-11T08:46:00;45.70;;;20.27;;
10303;SDS011;5197;48.152;8.590;2024-01-11T08:48:29;50.03;;;22.63;;
10303;SDS011;5197;48.152;8.590;2024-01-11T08:50:56;51.63;;;22.87;;
10303;SDS011;5197;48.152;8.590;2024-01-11T08:53:23;42.33;;;19.50;;
10303;SDS011;5197;48.152;8.590;2024-01-11T08:55:50;32.30;;;15.27;;
10303;SDS011;5197;48.152;8.590;2024-01-11T08:58:19;49.33;;;23.33;;
10303;SDS011;5197;48.152;8.590;2024-01-11T09:00:46;49.47;;;21.00;;
10303;SDS011;5197;48.152;8.590;2024-01-11T09:03:13;45.87;;;22.43;;
10303;SDS011;5197;48.152;8.590;2024-01-11T09:05:41;45.40;;;23.60;;
10303;SDS011;5197;48.152;8.590;2024-01-11T09:08:08;56.20;;;29.00;;
10303;SDS011;5197;48.152;8.590;2024-01-11T09:10:35;52.23;;;25.30;;
10303;SDS011;5197;48.152;8.590;2024-01-11T09:13:03;50.30;;;24.70;;
10303;SDS011;5197;48.152;8.590;2024-01-11T09:15:29;34.47;;;18.40;;
10303;SDS011;5197;48.152;8.590;2024-01-11T09:17:56;45.30;;;22.83;;
10303;SDS011;5197;48.152;8.590;2024-01-11T09:20:27;31.57;;;13.50;;
10303;SDS011;5197;48.152;8.590;2024-01-11T09:22:54;40.07;;;19.40;;
10303;SDS011;5197;48.152;8.590;2024-01-11T09:25:21;54.93;;;29.53;;
10303;SDS011;5197;48.152;8.590;2024-01-11T09:27:48;43.50;;;21.27;;
10303;SDS011;5197;48.152;8.590;2024-01-11T09:30:16;39.10;;;18.13;;
10303;SDS011;5197;48.152;8.590;2024-01-11T09:32:43;8.53;;;6.33;;
10303;SDS011;5197;48.152;8.590;2024-01-11T09:35:10;37.27;;;18.07;;
10303;SDS011;5197;48.152;8.590;2024-01-11T09:37:41;30.53;;;15.07;;
10303;SDS011;5197;48.152;8.590;2024-01-11T09:40:09;29.63;;;13.23;;
10303;SDS011;5197;48.152;8.590;2024-01-11T09:42:37;52.10;;;29.90;;
10303;SDS011;5197;48.152;8.590;2024-01-11T09:45:07;27.97;;;13.57;;
10303;SDS011;5197;48.152;8.590;2024-01-11T09:47:44;35.73;;;17.83;;
10303;SDS011;5197;48.152;8.590;2024-01-11T09:50:13;20.90;;;10.87;;
10303;SDS011;5197;48.152;8.590;2024-01-11T09:52:50;22.00;;;10.40;;
10303;SDS011;5197;48.152;8.590;2024-01-11T09:55:18;16.60;;;7.30;;
10303;SDS011;5197;48.152;8.590;2024-01-11T09:57:46;27.03;;;13.03;;
10303;SDS011;5197;48.152;8.590;2024-01-11T10:00:19;15.90;;;8.07;;
10303;SDS011;5197;48.152;8.590;2024-01-11T10:02:51;36.57;;;18.10;;
10303;SDS011;5197;48.152;8.590;2024-01-11T10:05:19;36.40;;;16.77;;
10303;SDS011;5197;48.152;8.590;2024-01-11T10:07:46;20.27;;;10.27;;
10303;SDS011;5197;48.152;8.590;2024-01-11T10:10:12;41.90;;;21.70;;
10303;SDS011;5197;48.152;8.590;2024-01-11T10:12:41;54.87;;;26.33;;
10303;SDS011;5197;48.152;8.590;2024-01-11T10:15:09;47.70;;;24.70;;
10303;SDS011;5197;48.152;8.590;2024-01-11T10:17:43;39.37;;;19.80;;
10303;SDS011;5197;48.152;8.590;2024-01-11T10:20:12;51.23;;;24.53;;
10303;SDS011;5197;48.152;8.590;2024-01-11T10:22:43;30.63;;;16.13;;
10303;SDS011;5197;48.152;8.590;2024-01-11T10:25:13;25.33;;;12.30;;
10303;SDS011;5197;48.152;8.590;2024-01-11T10:27:44;45.33;;;23.37;;
10303;SDS011;5197;48.152;8.590;2024-01-11T10:30:15;29.53;;;13.83;;
10303;SDS011;5197;48.152;8.590;2024-01-11T10:32:44;32.53;;;15.60;;
10303;SDS011;5197;48.152;8.590;2024-01-11T10:35:13;39.83;;;19.23;;
10303;SDS011;5197;48.152;8.590;2024-01-11T10:37:40;44.47;;;22.67;;
10303;SDS011;5197;48.152;8.590;2024-01-11T10:40:09;48.50;;;23.73;;
10303;SDS011;5197;48.152;8.590;2024-01-11T10:42:40;54.43;;;28.03;;
10303;SDS011;5197;48.152;8.590;2024-01-11T10:45:15;47.87;;;22.93;;
10303;SDS011;5197;48.152;8.590;2024-01-11T10:47:46;49.93;;;27.87;;
10303;SDS011;5197;48.152;8.590;2024-01-11T10:50:18;53.47;;;25.33;;
10303;SDS011;5197;48.152;8.590;2024-01-11T10:55:52;53.13;;;25.13;;
10303;SDS011;5197;48.152;8.590;2024-01-11T10:58:20;47.13;;;23.67;;
10303;SDS011;5197;48.152;8.590;2024-01-11T11:00:47;50.83;;;26.00;;
10303;SDS011;5197;48.152;8.590;2024-01-11T11:03:17;54.03;;;26.23;;
10303;SDS011;5197;48.152;8.590;2024-01-11T11:05:47;51.63;;;26.87;;
10303;SDS011;5197;48.152;8.590;2024-01-11T11:08:16;47.63;;;24.80;;
10303;SDS011;5197;48.152;8.590;2024-01-11T11:10:44;51.83;;;25.27;;
10303;SDS011;5197;48.152;8.590;2024-01-11T11:13:14;43.80;;;23.43;;
10303;SDS011;5197;48.152;8.590;2024-01-11T11:15:47;43.43;;;22.87;;
10303;SDS011;5197;48.152;8.590;2024-01-11T11:18:15;44.03;;;22.47;;
10303;SDS011;5197;48.152;8.590;2024-01-11T11:20:42;50.07;;;27.27;;
10303;SDS011;5197;48.152;8.590;2024-01-11T11:23:11;48.97;;;26.10;;
10303;SDS011;5197;48.152;8.590;2024-01-11T11:25:40;45.70;;;24.53;;
10303;SDS011;5197;48.152;8.590;2024-01-11T11:28:08;45.00;;;24.73;;
10303;SDS011;5197;48.152;8.590;2024-01-11T11:30:39;33.77;;;16.17;;
10303;SDS011;5197;48.152;8.590;2024-01-11T11:33:16;38.07;;;21.07;;
10303;SDS011;5197;48.152;8.590;2024-01-11T11:35:47;43.53;;;21.77;;
10303;SDS011;5197;48.152;8.590;2024-01-11T11:38:19;37.93;;;20.50;;
10303;SDS011;5197;48.152;8.590;2024-01-11T11:40:47;18.67;;;10.20;;
10303;SDS011;5197;48.152;8.590;2024-01-11T11:43:17;44.33;;;21.67;;
10303;SDS011;5197;48.152;8.590;2024-01-11T11:45:48;47.30;;;23.40;;
10303;SDS011;5197;48.152;8.590;2024-01-11T11:53:43;43.30;;;21.97;;
10303;SDS011;5197;48.152;8.590;2024-01-11T11:56:13;40.80;;;18.40;;
10303;SDS011;5197;48.152;8.590;2024-01-11T11:58:43;24.50;;;12.93;;
10303;SDS011;5197;48.152;8.590;2024-01-11T12:01:11;36.03;;;21.17;;
10303;SDS011;5197;48.152;8.590;2024-01-11T12:03:41;29.33;;;14.47;;
10303;SDS011;5197;48.152;8.590;2024-01-11T12:06:08;39.70;;;20.67;;
10303;SDS011;5197;48.152;8.590;2024-01-11T12:08:37;36.33;;;18.67;;
10303;SDS011;5197;48.152;8.590;2024-01-11T12:11:08;43.53;;;20.37;;
10303;SDS011;5197;48.152;8.590;2024-01-11T12:13:35;35.40;;;17.77;;
10303;SDS011;5197;48.152;8.590;2024-01-11T12:16:03;31.60;;;15.67;;
10303;SDS011;5197;48.152;8.590;2024-01-11T12:18:30;33.23;;;15.77;;
10303;SDS011;5197;48.152;8.590;2024-01-11T12:20:57;50.17;;;24.40;;
10303;SDS011;5197;48.152;8.590;2024-01-11T12:23:24;21.43;;;10.50;;
10303;SDS011;5197;48.152;8.590;2024-01-11T12:25:51;23.77;;;11.33;;
10303;SDS011;5197;48.152;8.590;2024-01-11T12:28:17;33.00;;;16.93;;
10303;SDS011;5197;48.152;8.590;2024-01-11T12:30:45;42.37;;;22.70;;
10303;SDS011;5197;48.152;8.590;2024-01-11T12:33:12;30.93;;;17.60;;
10303;SDS011;5197;48.152;8.590;2024-01-11T12:35:40;16.60;;;9.60;;
10303;SDS011;5197;48.152;8.590;2024-01-11T12:38:07;52.60;;;26.20;;
10303;SDS011;5197;48.152;8.590;2024-01-11T12:40:36;23.33;;;13.33;;
10303;SDS011;5197;48.152;8.590;2024-01-11T12:43:07;42.13;;;20.57;;
10303;SDS011;5197;48.152;8.590;2024-01-11T12:45:35;47.57;;;23.70;;
10303;SDS011;5197;48.152;8.590;2024-01-11T12:48:03;75.67;;;30.10;;
10303;SDS011;5197;48.152;8.590;2024-01-11T12:50:33;58.30;;;28.87;;
10303;SDS011;5197;48.152;8.590;2024-01-11T12:53:18;48.63;;;25.33;;
10303;SDS011;5197;48.152;8.590;2024-01-11T12:55:46;53.83;;;27.77;;
10303;SDS011;5197;48.152;8.590;2024-01-11T12:58:23;32.40;;;13.50;;
10303;SDS011;5197;48.152;8.590;2024-01-11T13:00:53;50.53;;;27.00;;
10303;SDS011;5197;48.152;8.590;2024-01-11T13:03:20;51.83;;;25.60;;
10303;SDS011;5197;48.152;8.590;2024-01-11T13:05:48;52.60;;;27.33;;
10303;SDS011;5197;48.152;8.590;2024-01-11T13:08:15;52.47;;;27.93;;
10303;SDS011;5197;48.152;8.590;2024-01-11T13:10:46;51.97;;;26.57;;
10303;SDS011;5197;48.152;8.590;2024-01-11T13:13:14;47.70;;;24.43;;
10303;SDS011;5197;48.152;8.590;2024-01-11T13:15:41;51.43;;;25.33;;
10303;SDS011;5197;48.152;8.590;2024-01-11T13:18:08;32.20;;;15.13;;
10303;SDS011;5197;48.152;8.590;2024-01-11T13:20:36;52.73;;;26.33;;
10303;SDS011;5197;48.152;8.590;2024-01-11T13:23:16;52.57;;;26.30;;
10303;SDS011;5197;48.152;8.590;2024-01-11T13:25:46;48.43;;;21.13;;
10303;SDS011;5197;48.152;8.590;2024-01-11T13:28:15;52.17;;;26.43;;
10303;SDS011;5197;48.152;8.590;2024-01-11T13:30:43;48.20;;;24.70;;
10303;SDS011;5197;48.152;8.590;2024-01-11T13:33:11;50.13;;;27.13;;
10303;SDS011;5197;48.152;8.590;2024-01-11T13:35:39;50.83;;;27.50;;
10303;SDS011;5197;48.152;8.590;2024-01-11T13:38:07;50.33;;;26.53;;
10303;SDS011;5197;48.152;8.590;2024-01-11T13:40:34;50.77;;;27.20;;
10303;SDS011;5197;48.152;8.590;2024-01-11T13:43:02;50.07;;;25.13;;
10303;SDS011;5197;48.152;8.590;2024-01-11T13:45:29;49.63;;;25.00;;
10303;SDS011;5197;48.152;8.590;2024-01-11T13:47:56;34.90;;;18.47;;
10303;SDS011;5197;48.152;8.590;2024-01-11T13:50:23;32.47;;;16.07;;
10303;SDS011;5197;48.152;8.590;2024-01-11T13:52:51;43.63;;;23.53;;
10303;SDS011;5197;48.152;8.590;2024-01-11T13:55:19;27.23;;;13.27;;
10303;SDS011;5197;48.152;8.590;2024-01-11T13:57:49;40.57;;;20.63;;
10303;SDS011;5197;48.152;8.590;2024-01-11T14:00:18;42.03;;;22.70;;
10303;SDS011;5197;48.152;8.590;2024-01-11T14:02:48;31.03;;;17.70;;
10303;SDS011;5197;48.152;8.590;2024-01-11T14:05:16;43.30;;;23.63;;
10303;SDS011;5197;48.152;8.590;2024-01-11T14:07:45;41.70;;;21.57;;
10303;SDS011;5197;48.152;8.590;2024-01-11T14:10:14;41.30;;;24.40;;
10303;SDS011;5197;48.152;8.590;2024-01-11T14:12:41;45.33;;;21.17;;
10303;SDS011;5197;48.152;8.590;2024-01-11T14:15:09;23.40;;;14.60;;
10303;SDS011;5197;48.152;8.590;2024-01-11T14:17:40;48.97;;;27.60;;
10303;SDS011;5197;48.152;8.590;2024-01-11T14:20:08;48.47;;;25.83;;
10303;SDS011;5197;48.152;8.590;2024-01-11T14:22:41;55.40;;;29.80;;
10303;SDS011;5197;48.152;8.590;2024-01-11T14:25:09;45.67;;;25.33;;
10303;SDS011;5197;48.152;8.590;2024-01-11T14:31:27;55.70;;;30.43;;
10303;SDS011;5197;48.152;8.590;2024-01-11T14:33:53;56.63;;;30.60;;
10303;SDS011;5197;48.152;8.590;2024-01-11T14:36:21;57.10;;;30.33;;
10303;SDS011;5197;48.152;8.590;2024-01-11T14:38:48;48.47;;;25.60;;
10303;SDS011;5197;48.152;8.590;2024-01-11T14:41:17;49.10;;;28.23;;
10303;SDS011;5197;48.152;8.590;2024-01-11T14:43:44;51.50;;;25.77;;
10303;SDS011;5197;48.152;8.590;2024-01-11T14:46:12;51.60;;;29.73;;
10303;SDS011;5197;48.152;8.590;2024-01-11T14:48:39;55.60;;;30.03;;
10303;SDS011;5197;48.152;8.590;2024-01-11T14:51:07;51.73;;;29.47;;
10303;SDS011;5197;48.152;8.590;2024-01-11T14:53:34;60.97;;;34.37;;